Pagina principală
METAR-TAF:

METAR-TAF

Aeroporturi :

Trevico, Italia

Latitudine: 41-03N, longitudine: 015-14E, elevație: 1085 m

Observații meteo curente

Raportul a fost făcut în urmă cu 1 oră și 25 de minute, la 07:55 UTC
Vânt 4 kt de la Est/Nord-est, variabil între Nord-vest și Est
Temperatură 28°C
Umiditate 35%
Presiune 1021 hPa
Vizibilitate de 10 km sau mai mult
nu există nori sub 1.500 m și nici cumulonimbus

METAR: LIRT 170755Z 07004KT 310V100 CAVOK 28/11 Q1021

Ora: 11:20 (09:20 UTC)


TAF: lipsă

Observații și prognoze meteo pentru peste 4.000 de aeroporturi (rapoarte METAR și TAF).

Stațiile disponibile sunt reprezentate pe hartă prin puncte galbene și roșii.

Țineți indicatorul mouse-ului pe punctul dorit pentru a vedea denumirea stației.

Apoi, faceți clic pentru a vedea observațiile și prognozele meteorologice.

Pentru a schimba harta: Pentru mărire, faceți clic pe butoanele verzi cu cruce neagră; pentru micșorare, pe butonul verde cu o liniuță; pentru hărți învecinate, pe săgețile verzi.


METAR-TAF: